createdAt,value
2022-09-01T00:01:50.714Z,96033.28
2022-09-01T00:04:28.905Z,96030.84
2022-09-01T00:06:55.839Z,96030.84
2022-09-01T00:09:24.100Z,96028.06
2022-09-01T00:11:53.439Z,96026.84
2022-09-01T00:14:30.833Z,96029.50
2022-09-01T00:17:00.154Z,96039.94
2022-09-01T00:19:27.596Z,96035.44
2022-09-01T00:21:55.633Z,96037.50
2022-09-01T00:24:22.793Z,96036.03
2022-09-01T00:26:49.538Z,96038.69
2022-09-01T00:29:16.574Z,96033.81
2022-09-01T00:31:43.805Z,96042.06
2022-09-01T00:34:10.589Z,96041.34
2022-09-01T00:36:37.698Z,96029.06
2022-09-01T00:39:05.625Z,96028.06
2022-09-01T00:41:34.771Z,96035.44
2022-09-01T00:44:02.866Z,96025.66
2022-09-01T00:46:33.810Z,96023.44
2022-09-01T00:49:17.702Z,96020.56
2022-09-01T00:51:48.531Z,96024.66
2022-09-01T00:54:20.129Z,96024.28
2022-09-01T00:56:48.421Z,96022.06
2022-09-01T00:59:24.835Z,96024.72
2022-09-01T01:01:51.463Z,96017.69
2022-09-01T01:04:18.099Z,96025.03
2022-09-01T01:06:50.536Z,96025.44
2022-09-01T01:09:20.516Z,96023.44
2022-09-01T01:11:47.800Z,96027.75
2022-09-01T01:14:17.399Z,96032.47
2022-09-01T01:16:46.783Z,96032.09
2022-09-01T01:19:44.886Z,96026.09
2022-09-01T01:22:37.013Z,96027.59
2022-09-01T01:25:04.058Z,96026.63
2022-09-01T01:27:35.789Z,96032.16
2022-09-01T01:30:11.847Z,96028.00
2022-09-01T01:32:43.823Z,96029.59
2022-09-01T01:35:14.962Z,96023.38
2022-09-01T01:37:48.964Z,96024.41
2022-09-01T01:40:18.774Z,96020.50
2022-09-01T01:42:48.270Z,96020.06
2022-09-01T01:45:17.887Z,96012.97
2022-09-01T01:47:56.445Z,96017.69
2022-09-01T01:50:35.668Z,96013.63
2022-09-01T01:53:11.047Z,96015.03
2022-09-01T01:55:39.361Z,96007.66
2022-09-01T01:58:08.177Z,96007.28
2022-09-01T02:00:35.128Z,96013.84
2022-09-01T02:03:01.799Z,96008.53
2022-09-01T02:05:32.217Z,96005.28
2022-09-01T02:08:04.764Z,96013.25
2022-09-01T02:10:52.251Z,96009.25
2022-09-01T02:13:26.155Z,96005.44
2022-09-01T02:15:55.523Z,96001.34
2022-09-01T02:18:26.415Z,96010.97
2022-09-01T02:20:53.862Z,96008.72
2022-09-01T02:23:24.549Z,96015.91
2022-09-01T02:26:15.148Z,96012.59
2022-09-01T02:28:43.726Z,96026.91
2022-09-01T02:31:11.628Z,96026.91
2022-09-01T02:33:40.122Z,96023.59
2022-09-01T02:36:13.979Z,96031.94
2022-09-01T02:38:46.692Z,96027.09
2022-09-01T02:41:14.520Z,96032.44
2022-09-01T02:43:46.402Z,96036.72
2022-09-01T02:46:14.828Z,96032.81
2022-09-01T02:48:46.225Z,96028.91
2022-09-01T02:51:16.044Z,96022.84
2022-09-01T02:53:44.501Z,96015.47
2022-09-01T02:56:15.438Z,96025.72
2022-09-01T02:58:47.330Z,96023.06
2022-09-01T03:01:22.769Z,96017.97
2022-09-01T03:03:50.461Z,96020.78
2022-09-01T03:06:21.089Z,96020.78
2022-09-01T03:08:48.444Z,96013.44
2022-09-01T03:11:15.371Z,96018.56
2022-09-01T03:13:42.810Z,96011.75
2022-09-01T03:16:10.771Z,96022.84
2022-09-01T03:18:38.481Z,96018.75
2022-09-01T03:21:08.497Z,96014.31
2022-09-01T03:23:36.053Z,96009.09
2022-09-01T03:26:03.047Z,96011.59
2022-09-01T03:28:30.150Z,96006.25
2022-09-01T03:30:58.160Z,96011.88
2022-09-01T03:33:27.053Z,96014.16
2022-09-01T03:35:54.429Z,96011.78
2022-09-01T03:38:23.073Z,96003.59
2022-09-01T03:41:02.269Z,96000.72
2022-09-01T03:43:35.780Z,96006.03
2022-09-01T03:46:03.305Z,96007.97
2022-09-01T03:48:32.285Z,96000.41
2022-09-01T03:51:03.294Z,96003.28
2022-09-01T03:53:35.160Z,96002.09
2022-09-01T03:56:04.251Z,95995.16
2022-09-01T03:58:31.536Z,96001.34
2022-09-01T04:01:02.057Z,95996.66
2022-09-01T04:03:32.097Z,95997.72
2022-09-01T04:06:00.950Z,95993.44
2022-09-01T04:08:32.294Z,96002.72
2022-09-01T04:11:05.245Z,96001.06
2022-09-01T04:13:37.310Z,96002.16
2022-09-01T04:16:10.704Z,95999.13
2022-09-01T04:18:37.566Z,96002.75
2022-09-01T04:21:07.249Z,96010.53
2022-09-01T04:23:37.182Z,96005.88
2022-09-01T04:26:09.132Z,96014.09
2022-09-01T04:28:39.601Z,96020.81
2022-09-01T04:31:09.315Z,96008.59
2022-09-01T04:33:40.074Z,96018.38
2022-09-01T04:36:14.545Z,96011.69
2022-09-01T04:38:41.079Z,96010.25
2022-09-01T04:41:09.466Z,96011.47
2022-09-01T04:43:36.051Z,96010.66
2022-09-01T04:46:03.318Z,96012.28
2022-09-01T04:48:31.792Z,96014.34
2022-09-01T04:50:58.760Z,96004.50
2022-09-01T04:53:28.548Z,96002.91
2022-09-01T04:55:55.336Z,96009.03
2022-09-01T04:58:22.522Z,96008.16
2022-09-01T05:00:52.329Z,96004.06
2022-09-01T05:03:22.426Z,96006.13
2022-09-01T05:05:49.016Z,96010.81
2022-09-01T05:08:20.549Z,96014.09
2022-09-01T05:10:53.332Z,96013.03
2022-09-01T05:13:20.209Z,96016.75
2022-09-01T05:15:47.671Z,96013.03
2022-09-01T05:18:24.704Z,96010.56
2022-09-01T05:20:52.482Z,96013.81
2022-09-01T05:23:20.233Z,96017.31
2022-09-01T05:25:53.826Z,96017.09
2022-09-01T05:28:24.705Z,96012.38
2022-09-01T05:30:54.187Z,96010.53
2022-09-01T05:33:22.072Z,96004.00
2022-09-01T05:35:55.656Z,96001.94
2022-09-01T05:38:24.238Z,96005.59
2022-09-01T05:41:04.101Z,95997.59
2022-09-01T05:43:31.462Z,95994.06
2022-09-01T05:46:06.585Z,95992.41
2022-09-01T05:48:40.362Z,95992.78
2022-09-01T05:51:22.410Z,95990.50
2022-09-01T05:53:58.970Z,95984.94
2022-09-01T05:56:30.160Z,95990.44
2022-09-01T06:01:50.291Z,95992.19
2022-09-01T06:04:17.442Z,95996.16
2022-09-01T06:07:05.767Z,96010.22
2022-09-01T06:09:38.363Z,96009.38
2022-09-01T06:12:06.810Z,96020.72
2022-09-01T06:14:34.981Z,96023.13
2022-09-01T06:17:03.283Z,96028.59
2022-09-01T06:19:34.801Z,96029.94
2022-09-01T06:22:02.927Z,96032.91
2022-09-01T06:24:29.846Z,96024.19
2022-09-01T06:26:56.861Z,96025.31
2022-09-01T06:29:23.369Z,96011.50
2022-09-01T06:31:52.906Z,96006.47
2022-09-01T06:34:20.583Z,96001.66
2022-09-01T06:36:49.665Z,96001.56
2022-09-01T06:39:22.417Z,96004.75
2022-09-01T06:41:53.091Z,96005.13
2022-09-01T06:44:23.151Z,95997.72
2022-09-01T06:46:51.995Z,95999.56
2022-09-01T06:49:21.516Z,95992.41
2022-09-01T06:51:52.805Z,95991.84
2022-09-01T06:54:21.089Z,95994.69
2022-09-01T06:56:51.581Z,95990.75
2022-09-01T06:59:20.919Z,95992.94
2022-09-01T07:04:39.474Z,96000.03
2022-09-01T07:13:04.819Z,96013.31
2022-09-01T07:18:14.921Z,95998.75
2022-09-01T07:21:36.584Z,96006.06
2022-09-01T07:23:46.364Z,96010.84
2022-09-01T07:26:26.459Z,96013.97
2022-09-01T07:29:00.998Z,96021.16
2022-09-01T07:39:53.425Z,96025.47
2022-09-01T07:42:30.104Z,96019.78
2022-09-01T07:45:26.899Z,96017.47
2022-09-01T07:47:54.033Z,96011.78
2022-09-01T07:53:09.377Z,95994.34
2022-09-01T07:55:41.484Z,95993.66
2022-09-01T07:58:10.502Z,95993.03
2022-09-01T08:00:38.150Z,95989.06
2022-09-01T08:03:04.723Z,95997.16
2022-09-01T08:05:32.758Z,95990.97
2022-09-01T08:07:59.372Z,95990.13
2022-09-01T08:10:25.911Z,95991.94
2022-09-01T08:12:59.787Z,95984.00
2022-09-01T08:16:06.751Z,96001.28
2022-09-01T08:18:14.739Z,96004.63
2022-09-01T08:20:45.736Z,96010.63
2022-09-01T08:23:19.156Z,96015.31
2022-09-01T08:25:47.713Z,96008.53
2022-09-01T08:28:15.680Z,96013.81
2022-09-01T08:30:52.064Z,96003.19
2022-09-01T08:33:19.697Z,96001.25
2022-09-01T08:35:49.134Z,96007.25
2022-09-01T08:38:16.495Z,96003.50
2022-09-01T08:40:51.531Z,96002.34
2022-09-01T08:43:51.987Z,96011.94
2022-09-01T08:46:35.205Z,96013.72
2022-09-01T08:52:18.634Z,96011.44
2022-09-01T08:54:49.844Z,96028.16
2022-09-01T08:57:35.381Z,96016.47
2022-09-01T09:00:02.547Z,96009.06
2022-09-01T09:02:41.450Z,96007.06
2022-09-01T09:05:26.355Z,96009.00
2022-09-01T09:08:29.671Z,96006.56
2022-09-01T09:11:04.183Z,96012.41
2022-09-01T09:13:52.157Z,96011.25
2022-09-01T09:16:25.482Z,96005.34
2022-09-01T09:18:57.830Z,96001.97
2022-09-01T09:21:33.807Z,96012.41
2022-09-01T09:24:29.021Z,96006.25
2022-09-01T09:27:04.618Z,96004.72
2022-09-01T09:29:33.573Z,95998.94
2022-09-01T09:34:56.957Z,95996.31
2022-09-01T09:37:29.996Z,96009.59
2022-09-01T09:40:18.142Z,96008.88
2022-09-01T09:42:56.821Z,96019.50
2022-09-01T09:45:36.101Z,96020.72
2022-09-01T09:48:30.188Z,96018.25
2022-09-01T09:51:16.631Z,96017.81
2022-09-01T09:53:43.238Z,96026.97
2022-09-01T09:56:15.584Z,96020.88
2022-09-01T09:58:44.855Z,96019.25
2022-09-01T10:01:17.644Z,96017.88
2022-09-01T10:03:54.155Z,96021.06
2022-09-01T10:06:33.101Z,96016.78
2022-09-01T10:09:02.447Z,96017.50
2022-09-01T10:11:42.849Z,96011.59
2022-09-01T10:14:52.409Z,96019.75
2022-09-01T10:17:26.120Z,96002.25
2022-09-01T10:19:58.017Z,96011.59
2022-09-01T10:22:25.762Z,96000.50
2022-09-01T10:24:52.744Z,95995.75
2022-09-01T10:27:24.616Z,96003.84
2022-09-01T10:30:14.153Z,96005.81
2022-09-01T10:32:54.881Z,96013.38
2022-09-01T10:35:27.473Z,95998.16
2022-09-01T10:37:55.866Z,96006.25
2022-09-01T10:40:31.031Z,96004.97
2022-09-01T10:43:05.392Z,96006.13
2022-09-01T10:45:35.606Z,95988.72
2022-09-01T10:48:30.502Z,95988.97
2022-09-01T10:51:19.297Z,95987.66
2022-09-01T10:53:51.523Z,95985.03
2022-09-01T10:56:44.340Z,96005.41
2022-09-01T10:59:33.806Z,96004.81
2022-09-01T11:02:26.411Z,95999.97
2022-09-01T11:05:00.436Z,95993.28
2022-09-01T11:07:57.944Z,95993.09
2022-09-01T11:10:35.947Z,95994.81
2022-09-01T11:13:14.976Z,96007.50
2022-09-01T11:15:44.887Z,96009.47
2022-09-01T11:18:27.368Z,96020.84
2022-09-01T11:20:56.276Z,96006.97
2022-09-01T11:23:31.420Z,96012.31
2022-09-01T11:28:46.170Z,96007.44
2022-09-01T11:31:21.300Z,96016.56
2022-09-01T11:34:13.071Z,96004.28
2022-09-01T11:36:49.084Z,96005.63
2022-09-01T11:39:20.942Z,96006.44
2022-09-01T11:42:03.561Z,95997.38
2022-09-01T11:44:48.057Z,95990.66
2022-09-01T11:47:21.434Z,96004.31
2022-09-01T11:49:58.437Z,95992.56
2022-09-01T11:52:30.434Z,95988.84
2022-09-01T11:54:58.152Z,95984.03
2022-09-01T11:57:28.687Z,95975.56
2022-09-01T11:59:58.023Z,95980.75
2022-09-01T12:02:26.685Z,95984.63
2022-09-01T12:04:56.327Z,95972.06
2022-09-01T12:07:32.516Z,95988.28
2022-09-01T12:09:59.122Z,95981.84
2022-09-01T12:12:35.206Z,95986.03
2022-09-01T12:15:07.292Z,95979.00
2022-09-01T12:17:35.286Z,95965.34
2022-09-01T12:20:28.946Z,95974.91
2022-09-01T12:22:58.493Z,95968.72
2022-09-01T12:25:27.129Z,95973.53
2022-09-01T12:27:54.074Z,95986.19
2022-09-01T12:30:22.025Z,95981.97
2022-09-01T12:32:49.069Z,95987.97
2022-09-01T12:35:25.691Z,95989.53
2022-09-01T12:37:53.484Z,95988.13
2022-09-01T12:40:36.028Z,95975.47
2022-09-01T12:43:02.623Z,95973.88
2022-09-01T12:45:46.352Z,95961.28
2022-09-01T12:48:42.871Z,95953.53
2022-09-01T12:51:29.495Z,95967.91
2022-09-01T12:54:04.829Z,95980.34
2022-09-01T12:56:36.107Z,95959.09
2022-09-01T12:59:16.063Z,95966.56
2022-09-01T13:01:44.203Z,95952.63
2022-09-01T13:04:30.035Z,95959.63
2022-09-01T13:07:05.864Z,95953.44
2022-09-01T13:09:32.695Z,95948.91
2022-09-01T13:12:21.852Z,95947.09
2022-09-01T13:14:48.854Z,95948.50
2022-09-01T13:17:15.978Z,95963.00
2022-09-01T13:19:42.674Z,95963.28
2022-09-01T13:22:09.599Z,95977.25
2022-09-01T13:24:36.178Z,95975.28
2022-09-01T13:29:50.457Z,95976.25
2022-09-01T13:32:20.915Z,95981.56
2022-09-01T13:34:51.534Z,95979.91
2022-09-01T13:37:20.250Z,95982.03
2022-09-01T13:39:47.380Z,95976.09
2022-09-01T13:42:15.978Z,95984.41
2022-09-01T13:44:44.107Z,95986.16
2022-09-01T13:50:09.265Z,95987.34
2022-09-01T13:52:37.771Z,95991.84
2022-09-01T13:55:05.996Z,95986.28
2022-09-01T13:57:36.478Z,95979.09
2022-09-01T14:00:06.798Z,95989.38
2022-09-01T14:02:35.356Z,95995.88
2022-09-01T14:05:01.900Z,95981.09
2022-09-01T14:07:30.100Z,95987.31
2022-09-01T14:09:56.718Z,95983.59
2022-09-01T14:12:23.406Z,95987.38
2022-09-01T14:17:38.576Z,95977.97
2022-09-01T14:20:07.893Z,95976.63
2022-09-01T14:22:38.545Z,95977.22
2022-09-01T14:25:06.457Z,95978.84
2022-09-01T14:27:33.065Z,95982.59
2022-09-01T14:30:00.934Z,95967.03
2022-09-01T14:32:27.521Z,95979.41
2022-09-01T14:34:54.881Z,95959.28
2022-09-01T14:37:22.492Z,95976.75
2022-09-01T14:39:50.813Z,95970.81
2022-09-01T14:42:19.010Z,95971.91
2022-09-01T14:44:47.508Z,95963.56
2022-09-01T14:47:18.279Z,95963.56
2022-09-01T14:49:46.767Z,95958.44
2022-09-01T14:52:14.413Z,95967.31
2022-09-01T14:54:45.113Z,95953.34
2022-09-01T14:59:59.092Z,95962.22
2022-09-01T15:02:26.104Z,95972.94
2022-09-01T15:04:52.819Z,95969.13
2022-09-01T15:07:20.383Z,95960.50
2022-09-01T15:09:47.258Z,95965.06
2022-09-01T15:12:13.806Z,95976.91
2022-09-01T15:14:40.377Z,95972.09
2022-09-01T15:17:07.164Z,95969.16
2022-09-01T15:19:34.526Z,95982.06
2022-09-01T15:22:01.049Z,95981.78
2022-09-01T15:24:27.644Z,95983.16
2022-09-01T15:26:55.065Z,95982.91
2022-09-01T15:29:21.560Z,95979.44
2022-09-01T15:31:48.195Z,95985.91
2022-09-01T15:34:14.970Z,95985.94
2022-09-01T15:36:42.044Z,95972.78
2022-09-01T15:39:10.510Z,95976.75
2022-09-01T15:41:37.776Z,95980.25
2022-09-01T15:44:07.027Z,95984.53
2022-09-01T15:46:35.280Z,95976.25
2022-09-01T15:49:07.820Z,95984.31
2022-09-01T15:51:42.509Z,95985.38
2022-09-01T15:54:18.256Z,95978.16
2022-09-01T15:56:45.662Z,95973.59
2022-09-01T15:59:12.375Z,95977.91
2022-09-01T16:01:41.862Z,95986.50
2022-09-01T16:04:14.671Z,95990.19
2022-09-01T16:06:44.784Z,95992.06
2022-09-01T16:09:12.594Z,95985.91
2022-09-01T16:11:40.209Z,95985.38
2022-09-01T16:14:07.051Z,95995.06
2022-09-01T16:16:47.900Z,95982.13
2022-09-01T16:19:39.558Z,95982.13
2022-09-01T16:22:30.122Z,95982.13
2022-09-01T16:25:01.712Z,95987.75
2022-09-01T16:27:34.381Z,95994.44
2022-09-01T16:30:11.007Z,95994.94
2022-09-01T16:32:42.232Z,95998.75
2022-09-01T16:35:09.064Z,95997.16
2022-09-01T16:37:54.336Z,96001.97
2022-09-01T16:40:45.227Z,95988.56
2022-09-01T16:43:31.656Z,96001.38
2022-09-01T16:46:07.520Z,95996.50
2022-09-01T16:49:18.114Z,96000.72
2022-09-01T16:52:09.402Z,95999.03
2022-09-01T16:54:59.668Z,96006.25
2022-09-01T16:57:30.861Z,96012.25
2022-09-01T17:00:04.969Z,96015.31
2022-09-01T17:03:01.655Z,96006.78
2022-09-01T17:05:33.484Z,96018.69
2022-09-01T17:08:06.969Z,96018.63
2022-09-01T17:10:41.842Z,96030.94
2022-09-01T17:13:28.301Z,96016.22
2022-09-01T17:16:07.981Z,96032.97
2022-09-01T17:18:44.972Z,96025.06
2022-09-01T17:21:22.755Z,96035.84
2022-09-01T17:23:58.674Z,96038.25
2022-09-01T17:26:29.123Z,96031.72
2022-09-01T17:29:06.053Z,96036.19
2022-09-01T17:31:47.316Z,96026.44
2022-09-01T17:34:25.918Z,96029.59
2022-09-01T17:37:29.140Z,96041.28
2022-09-01T17:40:08.000Z,96040.31
2022-09-01T17:43:04.925Z,96042.56
2022-09-01T17:45:55.848Z,96047.50
2022-09-01T17:48:38.260Z,96048.84
2022-09-01T17:51:35.214Z,96055.16
2022-09-01T17:54:28.195Z,96059.84
2022-09-01T17:57:11.072Z,96067.91
2022-09-01T18:00:07.734Z,96066.16
2022-09-01T18:02:58.588Z,96078.84
2022-09-01T18:05:26.770Z,96073.75
2022-09-01T18:08:01.316Z,96076.59
2022-09-01T18:10:34.253Z,96071.63
2022-09-01T18:13:04.353Z,96071.75
2022-09-01T18:15:43.219Z,96085.00
2022-09-01T18:18:27.714Z,96092.28
2022-09-01T18:21:16.712Z,96099.72
2022-09-01T18:23:44.442Z,96107.47
2022-09-01T18:26:33.001Z,96104.22
2022-09-01T18:29:02.187Z,96103.59
2022-09-01T18:31:34.911Z,96107.72
2022-09-01T18:34:07.520Z,96119.16
2022-09-01T18:37:11.462Z,96111.94
2022-09-01T18:39:47.144Z,96104.44
2022-09-01T18:42:16.538Z,96105.28
2022-09-01T18:45:07.732Z,96111.13
2022-09-01T18:47:41.364Z,96106.84
2022-09-01T18:50:23.600Z,96104.56
2022-09-01T18:52:52.932Z,96101.63
2022-09-01T18:55:25.396Z,96107.59
2022-09-01T18:57:56.195Z,96115.44
2022-09-01T19:00:35.963Z,96117.41
2022-09-01T19:03:21.221Z,96107.47
2022-09-01T19:06:00.023Z,96116.72
2022-09-01T19:08:51.975Z,96115.97
2022-09-01T19:11:36.974Z,96125.25
2022-09-01T19:14:10.957Z,96127.00
2022-09-01T19:16:55.702Z,96128.28
2022-09-01T19:19:43.731Z,96132.88
2022-09-01T19:22:21.032Z,96127.75
2022-09-01T19:24:53.983Z,96131.34
2022-09-01T19:27:28.354Z,96128.50
2022-09-01T19:29:59.047Z,96133.22
2022-09-01T19:32:28.738Z,96135.09
2022-09-01T19:35:06.424Z,96134.72
2022-09-01T19:37:33.140Z,96130.31
2022-09-01T19:40:01.017Z,96138.94
2022-09-01T19:42:40.659Z,96136.09
2022-09-01T19:45:21.940Z,96134.88
2022-09-01T19:47:54.310Z,96141.06
2022-09-01T19:50:46.714Z,96140.50
2022-09-01T19:53:37.561Z,96144.16
2022-09-01T19:56:13.346Z,96143.22
2022-09-01T19:58:55.754Z,96149.34
2022-09-01T20:02:17.212Z,96143.84
2022-09-01T20:04:43.834Z,96147.56
2022-09-01T20:07:23.979Z,96149.44
2022-09-01T20:10:15.693Z,96147.41
2022-09-01T20:13:07.176Z,96153.75
2022-09-01T20:15:44.993Z,96156.00
2022-09-01T20:18:36.426Z,96152.75
2022-09-01T20:21:10.605Z,96152.56
2022-09-01T20:24:07.616Z,96151.13
2022-09-01T20:26:54.563Z,96151.97
2022-09-01T20:29:36.336Z,96151.97
2022-09-01T20:32:04.133Z,96147.03
2022-09-01T20:34:48.502Z,96151.13
2022-09-01T20:37:26.931Z,96144.00
2022-09-01T20:40:04.898Z,96153.78
2022-09-01T20:42:59.254Z,96159.50
2022-09-01T20:45:28.018Z,96157.88
2022-09-01T20:48:03.050Z,96161.72
2022-09-01T20:50:48.048Z,96157.66
2022-09-01T20:53:36.402Z,96168.81
2022-09-01T20:56:16.200Z,96164.16
2022-09-01T20:58:45.455Z,96159.69
2022-09-01T21:01:31.824Z,96160.25
2022-09-01T21:04:09.458Z,96161.28
2022-09-01T21:06:49.105Z,96162.47
2022-09-01T21:09:22.946Z,96165.94
2022-09-01T21:12:02.606Z,96167.97
2022-09-01T21:14:46.970Z,96168.97
2022-09-01T21:17:40.195Z,96176.06
2022-09-01T21:20:12.802Z,96182.38
2022-09-01T21:22:39.734Z,96177.91
2022-09-01T21:25:06.597Z,96182.97
2022-09-01T21:27:52.642Z,96185.78
2022-09-01T21:30:20.408Z,96178.69
2022-09-01T21:32:47.283Z,96187.03
2022-09-01T21:35:16.966Z,96179.91
2022-09-01T21:37:43.561Z,96183.75
2022-09-01T21:40:11.468Z,96180.91
2022-09-01T21:43:01.282Z,96185.78
2022-09-01T21:45:28.099Z,96187.56
2022-09-01T21:47:54.770Z,96183.50
2022-09-01T21:50:24.606Z,96188.56
2022-09-01T21:52:51.282Z,96179.63
2022-09-01T21:55:22.728Z,96179.78
2022-09-01T21:57:50.374Z,96178.59
2022-09-01T22:00:22.170Z,96187.53
2022-09-01T22:02:49.330Z,96173.31
2022-09-01T22:05:16.020Z,96182.03
2022-09-01T22:07:45.487Z,96180.63
2022-09-01T22:10:17.742Z,96184.03
2022-09-01T22:12:46.244Z,96185.66
2022-09-01T22:15:16.964Z,96178.91
2022-09-01T22:17:44.925Z,96177.66
2022-09-01T22:20:14.135Z,96180.31
2022-09-01T22:22:40.953Z,96174.34
2022-09-01T22:25:10.606Z,96173.97
2022-09-01T22:27:37.436Z,96179.25
2022-09-01T22:30:06.078Z,96167.22
2022-09-01T22:32:36.202Z,96171.06
2022-09-01T22:35:04.807Z,96169.44
2022-09-01T22:37:31.354Z,96167.59
2022-09-01T22:39:57.869Z,96167.19
2022-09-01T22:42:25.038Z,96168.56
2022-09-01T22:44:51.569Z,96165.69
2022-09-01T22:47:18.158Z,96167.53
2022-09-01T22:49:44.803Z,96171.34
2022-09-01T22:52:11.490Z,96171.31
2022-09-01T22:54:40.570Z,96170.88
2022-09-01T22:57:07.115Z,96165.94
2022-09-01T22:59:33.906Z,96170.03
2022-09-01T23:02:02.007Z,96167.78
2022-09-01T23:04:32.033Z,96169.63
2022-09-01T23:06:58.875Z,96168.97
2022-09-01T23:09:25.740Z,96174.66
2022-09-01T23:11:52.799Z,96158.56
2022-09-01T23:14:19.427Z,96166.06
2022-09-01T23:16:47.331Z,96161.78
2022-09-01T23:19:19.366Z,96163.63
2022-09-01T23:21:47.736Z,96163.81
2022-09-01T23:24:14.819Z,96168.25
2022-09-01T23:26:41.789Z,96156.72
2022-09-01T23:29:09.286Z,96162.34
2022-09-01T23:31:38.280Z,96164.94
2022-09-01T23:34:06.686Z,96158.41
2022-09-01T23:36:33.800Z,96157.22
2022-09-01T23:39:00.992Z,96158.41
2022-09-01T23:41:31.247Z,96161.03
2022-09-01T23:44:01.475Z,96153.66
2022-09-01T23:46:31.897Z,96157.72
2022-09-01T23:48:59.073Z,96158.91
2022-09-01T23:51:26.246Z,96163.56
2022-09-01T23:53:53.419Z,96154.44
2022-09-01T23:56:25.835Z,96151.81
2022-09-01T23:58:52.839Z,96153.22
